Terminal Aerodrome Forecast
Issued by NWS

Home | Current Version | Previous Version | Text Only | Print | Product List | Glossary On
Versions: 1 2 3 4 5 6 7 8 9 10 11 12 13
000
FTUS46 KSEW 030521
TAFCLM
TAF
KCLM 030521Z 0306/0406 29010KT P6SM BKN200
     FM031000 28007KT P6SM BKN200
      TEMPO 0312/0316 BKN006 BKN200
     FM031900 31012G22KT P6SM SCT200=

USA.gov is the U.S. government's official web portal to all federal, state and local government web resources and services.